Time;durP1;ratioP1;P1;durP2;ratioP2;P2;SDS_P1;SDS_P2;PMS_P1;PMS_P2;Temp;Humidity;BMP_temperature;BMP_pressure;BME280_temperature;BME280_humidity;BME280_pressure;Samples;Min_cycle;Max_cycle;Signal;HPM_P1;HPM_P2
2021/09/01 07:09:10;;;;;;;3.77;1.55;;;;;;;17.50;79.48;100060.48;1875069;74;21924;-75
2021/09/01 07:11:37;;;;;;;2.37;1.25;;;;;;;17.55;78.17;100055.73;1840373;75;20892;-73
2021/09/01 07:14:12;;;;;;;2.22;1.20;;;;;;;17.43;78.51;100056.61;1843154;75;21858;-73
2021/09/01 07:16:39;;;;;;;2.45;1.27;;;;;;;16.82;75.08;100056.41;1845036;75;20883;-73
2021/09/01 07:19:07;;;;;;;3.27;1.20;;;;;;;16.37;76.89;100055.03;1830162;75;21540;-72
2021/09/01 07:21:34;;;;;;;2.50;1.30;;;;;;;16.19;77.35;100067.16;1855370;75;21354;-74
2021/09/01 07:24:01;;;;;;;2.72;1.10;;;;;;;16.29;79.23;100056.84;1847510;75;20934;-72
2021/09/01 07:26:28;;;;;;;2.25;1.30;;;;;;;16.16;74.01;100060.77;1849169;75;21045;-73
2021/09/01 07:28:55;;;;;;;1.87;0.98;;;;;;;16.11;77.77;100081.30;1843253;75;21598;-74
2021/09/01 07:31:22;;;;;;;4.33;1.52;;;;;;;16.07;75.25;100074.52;1844693;75;21023;-72
2021/09/01 07:33:50;;;;;;;1.87;1.02;;;;;;;16.09;78.01;100075.27;1842980;75;20979;-78
2021/09/01 07:36:17;;;;;;;2.62;1.05;;;;;;;15.89;76.48;100078.70;1844919;75;20971;-69
2021/09/01 07:40:36;;;;;;;4.42;1.77;;;;;;;15.74;75.32;100084.95;1828618;77;22750;-69
2021/09/01 07:43:03;;;;;;;;;;;;;;;15.58;76.07;100093.40;1816751;78;21004;-71
2021/09/01 07:45:31;;;;;;;5.10;1.30;;;;;;;15.51;76.78;100102.60;1813687;78;22151;-70
2021/09/01 07:47:58;;;;;;;2.98;1.20;;;;;;;15.50;75.11;100100.92;1815246;78;20959;-72
2021/09/01 07:50:29;;;;;;;1.60;1.00;;;;;;;15.53;75.65;100104.20;1799532;78;20996;-68
2021/09/01 07:52:59;;;;;;;4.60;1.15;;;;;;;15.75;76.72;100106.38;1821963;78;20941;-68
2021/09/01 07:55:26;;;;;;;2.42;1.30;;;;;;;15.94;75.76;100106.55;1817850;78;20973;-68
2021/09/01 07:57:53;;;;;;;2.30;1.12;;;;;;;15.84;75.83;100111.06;1816262;78;21073;-68
2021/09/01 08:00:20;;;;;;;3.02;1.02;;;;;;;15.94;76.27;100107.87;1813421;78;21551;-68
2021/09/01 08:02:46;;;;;;;2.52;1.30;;;;;;;16.07;77.04;100120.61;1819979;78;20902;-68
2021/09/01 08:05:14;;;;;;;2.25;0.90;;;;;;;16.28;76.83;100115.29;1814297;78;20985;-68
2021/09/01 08:07:41;;;;;;;2.92;1.20;;;;;;;16.26;74.55;100120.28;1814777;78;21558;-68
2021/09/01 08:10:09;;;;;;;1.52;0.80;;;;;;;16.42;75.21;100122.30;1811954;78;21068;-69
2021/09/01 08:12:44;;;;;;;2.85;1.10;;;;;;;16.66;75.59;100117.19;1812536;77;21105;-68
2021/09/01 08:15:14;;;;;;;1.98;1.20;;;;;;;16.32;72.62;100127.31;1757677;78;21590;-69
2021/09/01 08:17:43;;;;;;;2.42;1.25;;;;;;;16.10;75.16;100132.27;1767733;79;21041;-68
2021/09/01 08:20:18;;;;;;;3.30;1.60;;;;;;;16.11;76.19;100131.34;1767506;79;21010;-68
2021/09/01 08:22:49;;;;;;;3.12;1.20;;;;;;;16.12;74.12;100139.61;1780320;78;21189;-68
2021/09/01 08:25:41;;;;;;;2.45;1.30;;;;;;;16.08;73.49;100137.65;1780517;80;21713;-69
2021/09/01 08:27:55;;;;;;;3.15;0.90;;;;;;;16.17;74.23;100145.91;1777335;80;20994;-69
2021/09/01 08:30:28;;;;;;;2.10;1.00;;;;;;;16.30;75.09;100155.57;1776144;80;21115;-68
2021/09/01 08:32:55;;;;;;;2.37;1.12;;;;;;;16.41;74.61;100151.38;1786306;80;21587;-69
2021/09/01 08:35:24;;;;;;;2.30;1.10;;;;;;;16.70;74.73;100145.06;1781250;78;20950;-68
2021/09/01 08:37:59;;;;;;;2.80;1.20;;;;;;;16.77;74.04;100149.00;1783647;80;21330;-69
2021/09/01 08:40:31;;;;;;;2.60;1.10;;;;;;;16.78;74.34;100145.44;1783670;78;21680;-69
2021/09/01 08:43:01;;;;;;;2.42;1.32;;;;;;;16.78;72.78;100145.44;1755089;80;21112;-69
2021/09/01 08:45:36;;;;;;;2.37;1.15;;;;;;;16.78;73.79;100140.16;1781443;78;21140;-69
2021/09/01 08:48:14;;;;;;;1.75;1.00;;;;;;;16.80;74.15;100145.31;1777307;78;21195;-69
2021/09/01 08:50:44;;;;;;;2.62;1.10;;;;;;;16.55;72.12;100144.28;1776992;78;21044;-69
2021/09/01 08:53:21;;;;;;;2.30;0.93;;;;;;;16.57;73.09;100146.80;1779685;78;21022;-69
2021/09/01 08:55:52;;;;;;;3.87;0.98;;;;;;;16.78;74.18;100144.11;1777834;79;20950;-70
2021/09/01 08:58:21;;;;;;;2.08;1.20;;;;;;;16.99;74.87;100144.94;1782062;79;21009;-70
2021/09/01 09:00:52;;;;;;;1.75;0.90;;;;;;;16.88;72.49;100146.97;1781810;79;20977;-69
2021/09/01 09:03:21;;;;;;;2.52;0.88;;;;;;;16.78;72.74;100155.98;1781107;79;21147;-68
2021/09/01 09:05:48;;;;;;;2.02;1.00;;;;;;;16.77;72.41;100153.44;1780908;79;21005;-68
2021/09/01 09:08:17;;;;;;;1.52;0.70;;;;;;;16.60;72.55;100178.23;1787473;79;21052;-69
2021/09/01 09:10:46;;;;;;;1.92;0.93;;;;;;;16.40;72.02;100170.78;1779164;79;21077;-69
2021/09/01 09:13:21;;;;;;;1.45;0.80;;;;;;;16.27;71.69;100170.26;1812834;78;21204;-70
2021/09/01 09:16:09;;;;;;;3.50;0.95;;;;;;;16.44;72.19;100159.95;1809083;78;21000;-69
2021/09/01 09:18:44;;;;;;;1.32;0.72;;;;;;;16.52;72.37;100155.48;1810472;78;20967;-69
2021/09/01 09:21:21;;;;;;;1.60;0.80;;;;;;;16.70;73.52;100152.97;1817607;78;21674;-69
2021/09/01 09:23:51;;;;;;;1.00;0.72;;;;;;;16.73;72.33;100158.52;1814751;78;20972;-69
2021/09/01 09:26:32;;;;;;;2.75;0.80;;;;;;;16.81;71.35;100150.14;1808472;78;21952;-68
2021/09/01 09:29:15;;;;;;;2.83;1.75;;;;;;;16.88;71.56;100159.31;1808858;78;21122;-69
2021/09/01 09:32:01;;;;;;;1.37;1.00;;;;;;;16.96;71.05;100157.02;1808888;78;21024;-69
2021/09/01 09:34:43;;;;;;;2.05;0.82;;;;;;;17.24;72.06;100165.23;1817097;78;20943;-69
2021/09/01 09:37:13;;;;;;;2.08;0.98;;;;;;;17.27;69.56;100141.75;1813162;78;20969;-69
2021/09/01 09:39:52;;;;;;;1.17;0.60;;;;;;;17.46;71.33;100146.14;1808360;78;21240;-69
2021/09/01 09:42:37;;;;;;;2.45;1.20;;;;;;;17.46;71.38;100148.78;1808949;78;21107;-68
2021/09/01 09:45:25;;;;;;;2.20;0.80;;;;;;;17.60;71.88;100151.30;1814349;78;20982;-69
2021/09/01 09:47:58;;;;;;;4.28;0.95;;;;;;;17.68;71.29;100158.22;1811624;78;21032;-68
2021/09/01 09:50:26;;;;;;;3.10;0.80;;;;;;;17.54;69.14;100153.05;1766365;79;21084;-69
2021/09/01 09:52:53;;;;;;;6.58;1.25;;;;;;;17.16;68.92;100155.20;1766077;79;21936;-69
2021/09/01 09:55:34;;;;;;;4.72;1.12;;;;;;;17.03;69.49;100143.80;1750443;81;21071;-69
2021/09/01 09:58:07;;;;;;;1.55;0.85;;;;;;;17.15;71.01;100160.11;1772078;79;21073;-69
2021/09/01 10:00:39;;;;;;;3.00;1.30;;;;;;;17.53;71.67;100147.42;1778392;79;21088;-70
2021/09/01 10:03:09;;;;;;;1.80;1.20;;;;;;;17.53;71.14;100150.06;1763531;79;20938;-69
2021/09/01 10:05:41;;;;;;;3.98;1.65;;;;;;;17.32;70.96;100148.89;1745312;81;21060;-69
2021/09/01 10:08:09;;;;;;;1.87;1.00;;;;;;;17.19;70.78;100154.14;1760937;79;20961;-69
2021/09/01 10:10:37;;;;;;;2.25;1.20;;;;;;;17.17;70.05;100162.18;1767330;79;21598;-69
2021/09/01 10:13:04;;;;;;;2.60;1.35;;;;;;;17.28;70.56;100161.91;1755541;81;21084;-69
2021/09/01 10:15:38;;;;;;;;;;;;;;;17.48;69.96;100157.45;1769590;79;20972;-69
2021/09/01 10:18:10;;;;;;;1.55;1.07;;;;;;;17.46;68.18;100151.42;1775327;79;21121;-71
2021/09/01 10:20:42;;;;;;;3.40;1.40;;;;;;;17.60;70.41;100157.91;1750627;80;21072;-69
2021/09/01 10:23:09;;;;;;;3.22;1.07;;;;;;;17.79;68.81;100152.70;1761820;79;21535;-69
2021/09/01 10:25:49;;;;;;;1.75;1.17;;;;;;;17.72;68.82;100151.39;1773061;79;20962;-68
2021/09/01 10:28:31;;;;;;;1.85;1.10;;;;;;;17.62;67.37;100152.05;1764519;79;21100;-68
2021/09/01 10:31:19;;;;;;;1.00;0.90;;;;;;;17.80;68.85;100143.81;1774219;79;21146;-68
2021/09/01 10:33:52;;;;;;;2.95;1.37;;;;;;;17.62;66.57;100145.45;1770551;79;21085;-68
2021/09/01 10:36:38;;;;;;;1.60;1.37;;;;;;;17.73;67.12;100145.16;1751626;81;21589;-68
2021/09/01 10:39:35;;;;;;;3.02;1.65;;;;;;;17.77;68.46;100140.04;1767442;79;22250;-68
2021/09/01 10:42:37;;;;;;;1.77;1.40;;;;;;;17.80;67.08;100141.17;1763775;80;20910;-68
2021/09/01 10:45:07;;;;;;;2.35;1.15;;;;;;;17.71;65.74;100136.52;1763973;80;22059;-69
2021/09/01 10:48:05;;;;;;;1.82;1.22;;;;;;;17.53;65.76;100143.45;1774101;79;20975;-68
2021/09/01 10:50:42;;;;;;;3.00;1.20;;;;;;;17.56;66.22;100147.20;1743568;81;21060;-68
2021/09/01 10:53:28;;;;;;;2.15;1.25;;;;;;;17.59;66.57;100143.02;1767567;79;20997;-68
2021/09/01 10:56:05;;;;;;;2.22;1.40;;;;;;;17.74;65.58;100148.18;1743927;81;21005;-68
2021/09/01 10:58:39;;;;;;;;;;;;;;;17.92;65.75;100144.25;1783622;79;21127;-68
2021/09/01 11:01:24;;;;;;;3.08;1.50;;;;;;;17.81;63.67;100150.77;1748483;81;20596;-69
2021/09/01 11:04:07;;;;;;;;;;;;;;;;;;;;;
2021/09/01 11:06:37;;;;;;;1.72;1.40;;;;;;;17.77;64.69;100153.24;1856784;76;22847;-69
2021/09/01 11:09:16;;;;;;;3.10;1.42;;;;;;;17.95;65.02;100148.48;1826571;78;20973;-69
2021/09/01 11:11:59;;;;;;;1.55;1.30;;;;;;;18.07;64.07;100155.06;1824496;77;21139;-69
2021/09/01 11:14:44;;;;;;;3.08;2.00;;;;;;;18.16;63.35;100160.64;1815544;77;20996;-68
2021/09/01 11:17:23;;;;;;;3.30;1.72;;;;;;;18.09;64.56;100161.09;1813632;78;20943;-68
2021/09/01 11:19:58;;;;;;;2.15;1.92;;;;;;;17.90;62.34;100166.00;1809249;77;20939;-68
2021/09/01 11:22:29;;;;;;;2.55;1.92;;;;;;;17.74;60.75;100175.91;1816006;77;20987;-68
2021/09/01 11:25:07;;;;;;;3.08;1.92;;;;;;;17.67;63.44;100167.10;1825227;77;21721;-68
2021/09/01 11:27:37;;;;;;;2.65;2.35;;;;;;;17.66;63.03;100171.99;1807416;77;21615;-69
2021/09/01 11:30:10;;;;;;;2.92;2.10;;;;;;;17.55;63.35;100166.61;1819844;77;20907;-68
2021/09/01 11:32:40;;;;;;;3.72;2.47;;;;;;;17.47;63.31;100163.66;1810696;77;20938;-69
2021/09/01 11:35:25;;;;;;;3.37;2.20;;;;;;;17.40;63.87;100184.84;1813215;78;21536;-69
2021/09/01 11:38:05;;;;;;;2.00;1.80;;;;;;;17.32;63.70;100177.92;1814782;78;21302;-69
2021/09/01 11:40:38;;;;;;;4.08;1.87;;;;;;;17.31;63.15;100184.13;1818707;77;21519;-68
2021/09/01 11:43:20;;;;;;;2.22;1.80;;;;;;;17.39;63.30;100190.60;1804065;77;21018;-67
2021/09/01 11:45:50;;;;;;;3.50;2.70;;;;;;;17.41;63.34;100185.20;1810753;77;20976;-68
2021/09/01 11:48:17;;;;;;;2.00;1.80;;;;;;;17.47;63.97;100187.41;1814740;77;21018;-69
2021/09/01 11:50:47;;;;;;;3.02;2.22;;;;;;;17.57;64.20;100179.24;1818432;77;21029;-69
2021/09/01 11:53:16;;;;;;;2.25;2.02;;;;;;;17.68;62.39;100190.39;1817611;76;20923;-68
2021/09/01 11:55:44;;;;;;;3.87;2.10;;;;;;;17.65;62.21;100203.33;1804892;77;20940;-68
2021/09/01 11:58:21;;;;;;;2.58;1.90;;;;;;;17.58;63.95;100176.96;1816869;77;20994;-69
2021/09/01 12:00:49;;;;;;;5.37;2.35;;;;;;;17.55;63.43;100185.09;1815155;77;20940;-68
2021/09/01 12:03:17;;;;;;;3.05;2.35;;;;;;;17.50;63.22;100189.84;1825220;77;21071;-68
2021/09/01 12:05:44;;;;;;;7.67;2.25;;;;;;;17.40;63.82;100190.13;1820491;77;21144;-69
2021/09/01 12:08:18;;;;;;;2.55;1.77;;;;;;;17.57;64.69;100185.84;1818810;77;20958;-68
2021/09/01 12:11:06;;;;;;;3.60;2.10;;;;;;;17.75;64.28;100182.87;1814501;77;20983;-69
2021/09/01 12:13:51;;;;;;;2.87;1.87;;;;;;;17.82;63.99;100185.02;1676992;84;21057;-68
2021/09/01 12:16:26;;;;;;;1.90;1.80;;;;;;;17.81;63.16;100190.39;1563398;89;21602;-67
2021/09/01 12:18:55;;;;;;;2.77;1.82;;;;;;;17.74;63.47;100175.91;1562613;89;21168;-67
2021/09/01 12:21:28;;;;;;;2.72;1.67;;;;;;;17.80;63.27;100186.07;1565189;90;21145;-67
2021/09/01 12:24:13;;;;;;;3.08;1.87;;;;;;;17.83;63.11;100185.86;1560360;89;21111;-68
2021/09/01 12:27:07;;;;;;;4.15;2.05;;;;;;;17.93;63.44;100176.34;1867608;74;22731;-68
2021/09/01 12:29:39;;;;;;;2.40;1.87;;;;;;;17.91;63.69;100178.23;1838252;77;21526;-68
2021/09/01 12:32:10;;;;;;;2.40;1.70;;;;;;;18.01;63.09;100181.93;1842501;75;21051;-68
2021/09/01 12:34:43;;;;;;;3.62;2.00;;;;;;;17.91;62.71;100178.23;1842316;75;20965;-71
2021/09/01 12:37:14;;;;;;;2.30;1.72;;;;;;;17.66;62.61;100189.16;1839501;76;20984;-70
2021/09/01 12:39:48;;;;;;;5.87;2.02;;;;;;;17.41;61.32;100191.80;1848353;76;21656;-70
2021/09/01 12:42:29;;;;;;;2.10;1.70;;;;;;;17.38;62.95;100178.81;1813872;75;21673;-72
2021/09/01 12:45:03;;;;;;;2.17;1.60;;;;;;;17.35;61.45;100180.34;1832446;75;21090;-70
2021/09/01 12:47:31;;;;;;;2.58;1.65;;;;;;;17.30;61.23;100202.24;1850116;77;20895;-68
2021/09/01 12:50:03;;;;;;;3.33;1.60;;;;;;;17.33;62.60;100180.91;1841932;75;21016;-68
2021/09/01 12:52:31;;;;;;;7.92;2.00;;;;;;;17.40;61.76;100188.80;1841160;76;20969;-68
2021/09/01 12:54:59;;;;;;;2.52;1.25;;;;;;;17.59;62.47;100177.83;1840971;77;20918;-68
2021/09/01 12:57:26;;;;;;;3.12;1.70;;;;;;;17.68;62.25;100181.98;1843736;77;21078;-68
2021/09/01 12:59:52;;;;;;;4.35;1.80;;;;;;;17.60;61.50;100175.06;1838801;77;20934;-69
2021/09/01 13:02:19;;;;;;;2.52;1.60;;;;;;;17.57;61.37;100171.32;1841999;76;20915;-68
2021/09/01 13:04:46;;;;;;;3.17;1.62;;;;;;;17.62;61.86;100178.45;1840017;75;21001;-69
2021/09/01 13:07:13;;;;;;;2.65;1.57;;;;;;;17.60;61.41;100180.34;1833537;75;20949;-68
2021/09/01 13:09:39;;;;;;;2.08;1.52;;;;;;;17.61;61.08;100176.74;1832095;75;21104;-68
2021/09/01 13:12:06;;;;;;;4.62;1.98;;;;;;;17.54;61.22;100174.17;1837352;75;21020;-68
2021/09/01 13:14:33;;;;;;;;;;;;;;;17.45;60.96;100184.06;1845518;75;20918;-69
2021/09/01 13:17:05;;;;;;;5.05;1.50;;;;;;;17.50;61.62;100181.92;1831766;75;20439;-69
2021/09/01 13:19:31;;;;;;;3.90;1.67;;;;;;;17.46;60.76;100187.05;1841376;75;21029;-70
2021/09/01 13:21:58;;;;;;;2.45;1.30;;;;;;;17.42;61.68;100186.88;1845467;77;20989;-69
2021/09/01 13:24:25;;;;;;;3.22;1.67;;;;;;;17.41;61.78;100185.20;1852007;76;21537;-69
2021/09/01 13:26:52;;;;;;;6.55;1.98;;;;;;;17.30;61.62;100185.09;1842436;76;21551;-68
2021/09/01 13:29:18;;;;;;;3.35;1.52;;;;;;;17.25;62.12;100184.55;1840385;76;21461;-69
2021/09/01 13:31:47;;;;;;;2.60;1.45;;;;;;;17.19;62.48;100190.60;1829853;77;20951;-69
2021/09/01 13:34:14;;;;;;;4.67;1.77;;;;;;;17.25;62.67;100181.42;1821835;76;21083;-69
2021/09/01 13:36:41;;;;;;;3.70;2.02;;;;;;;17.48;62.92;100193.56;1847297;76;21005;-69
2021/09/01 13:39:10;;;;;;;2.65;1.85;;;;;;;17.63;63.06;100188.05;1821117;76;21123;-68
2021/09/01 13:41:36;;;;;;;2.50;1.77;;;;;;;17.61;61.84;100187.30;1827685;76;20906;-68
2021/09/01 13:44:05;;;;;;;2.60;1.82;;;;;;;17.39;61.66;100200.29;1804189;78;20970;-70
2021/09/01 13:46:33;;;;;;;5.15;1.90;;;;;;;17.15;61.80;100185.17;1806724;78;21855;-69
2021/09/01 13:49:01;;;;;;;5.12;2.00;;;;;;;17.07;62.43;100175.61;1822677;76;21010;-69
2021/09/01 13:51:28;;;;;;;4.47;1.75;;;;;;;16.95;61.58;100171.17;1828531;77;20982;-70
2021/09/01 13:53:56;;;;;;;3.30;1.47;;;;;;;16.82;61.89;100176.39;1831971;77;21665;-72
2021/09/01 13:56:24;;;;;;;2.25;1.55;;;;;;;16.87;62.61;100174.78;1826056;76;21036;-70
2021/09/01 13:59:38;;;;;;;5.53;1.87;;;;;;;16.89;62.15;100171.58;1840445;76;22295;-68
2021/09/01 14:02:05;;;;;;;2.65;1.47;;;;;;;16.74;62.43;100162.36;1795218;78;21022;-69
2021/09/01 14:04:32;;;;;;;2.37;1.45;;;;;;;16.71;62.40;100162.56;1794827;79;21077;-69
2021/09/01 14:06:58;;;;;;;2.45;1.60;;;;;;;16.77;62.73;100167.45;1794989;79;20991;-69
2021/09/01 14:09:29;;;;;;;1.77;1.40;;;;;;;16.73;62.65;100161.16;1799661;78;21541;-69
2021/09/01 14:11:55;;;;;;;8.03;1.98;;;;;;;16.67;62.59;100163.72;1798224;79;21007;-71
2021/09/01 14:14:22;;;;;;;3.80;1.52;;;;;;;16.72;62.64;100169.55;1799914;79;21008;-69
2021/09/01 14:16:49;;;;;;;4.35;2.42;;;;;;;16.61;62.19;100165.45;1795926;79;21062;-69
2021/09/01 14:19:16;;;;;;;5.75;2.25;;;;;;;16.56;63.04;100166.22;1767398;79;21029;-69
2021/09/01 14:21:43;;;;;;;2.25;1.80;;;;;;;16.63;63.39;100172.76;1765562;79;21669;-69
2021/09/01 14:24:24;;;;;;;8.55;2.37;;;;;;;16.68;63.31;100165.41;1803725;79;20987;-69
2021/09/01 14:26:56;;;;;;;4.65;2.00;;;;;;;16.72;63.54;100163.40;1805877;78;20907;-72
2021/09/01 14:29:25;;;;;;;3.12;1.87;;;;;;;16.66;63.25;100164.65;1813877;78;21958;-68
2021/09/01 14:31:55;;;;;;;3.00;1.82;;;;;;;16.73;63.73;100165.95;1819835;77;20980;-69
2021/09/01 14:34:22;;;;;;;2.95;1.92;;;;;;;16.80;63.74;100162.45;1801992;78;20942;-68
2021/09/01 14:36:49;;;;;;;12.60;2.42;;;;;;;16.51;64.40;100152.48;1800429;78;20927;-67
2021/09/01 14:39:16;;;;;;;3.62;2.30;;;;;;;16.51;64.40;100152.48;1800112;79;21024;-68
2021/09/01 14:41:42;;;;;;;3.70;2.13;;;;;;;16.52;64.67;100166.02;1794070;79;21056;-68
2021/09/01 14:44:09;;;;;;;4.10;2.30;;;;;;;16.47;65.08;100172.09;1794911;78;20973;-67
2021/09/01 14:46:36;;;;;;;3.72;2.52;;;;;;;16.40;65.66;100174.73;1795295;78;21029;-67
2021/09/01 14:49:03;;;;;;;7.43;2.53;;;;;;;16.33;65.91;100179.09;1798085;78;21001;-67
2021/09/01 14:51:29;;;;;;;5.05;2.70;;;;;;;16.28;66.10;100173.26;1795880;79;20985;-68
2021/09/01 14:53:56;;;;;;;6.25;2.77;;;;;;;16.25;66.17;100173.45;1793409;79;21721;-67
2021/09/01 14:56:23;;;;;;;6.03;2.50;;;;;;;16.17;67.01;100167.83;1792285;79;20954;-68
2021/09/01 14:58:50;;;;;;;4.40;2.20;;;;;;;16.08;67.31;100179.80;1796200;78;20986;-68
2021/09/01 15:01:17;;;;;;;2.92;1.98;;;;;;;15.99;67.53;100171.16;1793663;79;21995;-67
2021/09/01 15:03:44;;;;;;;4.95;1.98;;;;;;;15.92;67.96;100176.42;1797490;79;21116;-67
2021/09/01 15:06:13;;;;;;;2.87;2.08;;;;;;;15.94;67.54;100165.80;1792923;79;22101;-67
2021/09/01 15:08:41;;;;;;;3.55;2.15;;;;;;;15.92;68.17;100166.36;1811911;78;20973;-67
2021/09/01 15:11:11;;;;;;;6.05;2.40;;;;;;;15.84;68.46;100176.89;1804732;78;21076;-69
2021/09/01 15:13:37;;;;;;;3.87;3.00;;;;;;;15.81;68.83;100169.18;1799219;78;21618;-69
2021/09/01 15:16:05;;;;;;;2.90;2.08;;;;;;;15.77;68.67;100170.33;1796133;78;20991;-68
2021/09/01 15:18:33;;;;;;;5.50;2.60;;;;;;;15.68;69.69;100173.50;1807055;78;21734;-69
2021/09/01 15:20:59;;;;;;;3.17;2.62;;;;;;;15.62;69.87;100173.84;1804454;77;20934;-70
2021/09/01 15:23:27;;;;;;;4.33;2.40;;;;;;;15.54;69.78;100162.94;1799658;78;20967;-68
2021/09/01 15:25:54;;;;;;;8.13;2.77;;;;;;;15.51;69.71;100169.70;1799834;78;21526;-68
2021/09/01 15:28:23;;;;;;;4.37;2.95;;;;;;;15.55;69.46;100173.39;1810495;78;20976;-67
2021/09/01 15:31:00;;;;;;;6.12;3.27;;;;;;;15.52;69.82;100174.05;1806118;78;21230;-66
2021/09/01 15:33:30;;;;;;;4.80;2.57;;;;;;;15.45;69.59;100165.19;1814403;77;21063;-67
2021/09/01 15:35:57;;;;;;;4.55;2.87;;;;;;;15.39;70.15;100162.93;1800856;78;21633;-67
2021/09/01 15:38:28;;;;;;;5.60;2.50;;;;;;;15.35;70.58;100169.33;1809420;77;21079;-67
2021/09/01 15:40:57;;;;;;;7.65;2.75;;;;;;;15.32;70.16;100176.09;1812850;78;21603;-67
2021/09/01 15:43:28;;;;;;;4.30;2.85;;;;;;;15.33;70.36;100179.09;1816911;78;21900;-67
2021/09/01 15:46:04;;;;;;;5.60;3.10;;;;;;;15.25;70.73;100173.91;1803731;78;20965;-66
2021/09/01 15:48:55;;;;;;;6.83;2.80;;;;;;;15.15;71.44;100173.59;1801597;78;20978;-67
2021/09/01 15:51:25;;;;;;;5.85;2.83;;;;;;;15.10;70.69;100159.89;1807037;78;20974;-67
2021/09/01 15:53:53;;;;;;;4.78;3.05;;;;;;;15.08;71.01;100160.45;1806013;78;20942;-67
2021/09/01 15:56:22;;;;;;;4.10;3.08;;;;;;;14.99;71.30;100163.99;1807432;78;21885;-66
2021/09/01 15:58:48;;;;;;;4.45;2.98;;;;;;;14.92;71.09;100158.70;1802840;77;20977;-67
2021/09/01 16:01:17;;;;;;;5.87;3.12;;;;;;;14.83;71.45;100152.67;1788204;79;20969;-67
2021/09/01 16:03:45;;;;;;;5.05;3.33;;;;;;;14.81;71.56;100161.11;1796185;79;21584;-67
2021/09/01 16:06:13;;;;;;;4.10;3.20;;;;;;;14.81;71.85;100163.73;1792640;79;21583;-68
2021/09/01 16:08:43;;;;;;;6.83;3.25;;;;;;;14.76;71.73;100160.55;1805784;78;22033;-66
2021/09/01 16:11:12;;;;;;;3.72;3.20;;;;;;;14.72;72.63;100166.90;1796280;79;20927;-66
2021/09/01 16:13:49;;;;;;;6.03;3.60;;;;;;;14.68;74.84;100170.66;1796695;78;20891;-68
2021/09/01 16:16:24;;;;;;;5.12;3.70;;;;;;;14.64;73.09;100163.86;1792880;78;22132;-67
2021/09/01 16:19:05;;;;;;;5.72;3.60;;;;;;;14.61;73.23;100169.30;1820538;78;20973;-67
2021/09/01 16:21:35;;;;;;;5.58;4.37;;;;;;;14.55;73.61;100176.59;1804696;78;21922;-68
2021/09/01 16:24:03;;;;;;;5.30;4.03;;;;;;;14.50;73.35;100178.59;1784328;78;20953;-68
2021/09/01 16:26:32;;;;;;;;;;;;;;;14.45;74.80;100174.08;1801706;78;21024;-68
2021/09/01 16:29:02;;;;;;;6.55;4.05;;;;;;;14.41;74.21;100177.80;1803510;77;20108;-68
2021/09/01 16:31:30;;;;;;;9.15;4.67;;;;;;;14.38;73.72;100181.91;1812135;78;20965;-68
2021/09/01 16:33:57;;;;;;;8.00;4.28;;;;;;;14.31;76.15;100186.67;1812101;78;21073;-69
2021/09/01 16:36:26;;;;;;;6.83;4.50;;;;;;;14.23;74.33;100180.15;1781261;78;21012;-68
2021/09/01 16:38:54;;;;;;;6.08;4.30;;;;;;;14.20;74.16;100185.54;1807126;78;20989;-69
2021/09/01 16:41:32;;;;;;;6.95;4.90;;;;;;;14.20;74.25;100181.60;1808357;78;20989;-69
2021/09/01 16:44:03;;;;;;;6.28;4.72;;;;;;;14.17;74.05;100187.03;1810310;78;20934;-69
2021/09/01 16:46:31;;;;;;;7.80;4.72;;;;;;;14.12;74.56;100193.02;1809185;78;21066;-69
2021/09/01 16:48:58;;;;;;;6.42;4.65;;;;;;;14.06;74.59;100187.16;1808014;78;20938;-69
2021/09/01 16:51:35;;;;;;;5.95;4.10;;;;;;;13.99;74.90;100191.04;1814318;78;21056;-69
2021/09/01 16:54:07;;;;;;;8.30;4.53;;;;;;;13.90;75.39;100186.30;1799384;78;20942;-69
2021/09/01 16:56:33;;;;;;;8.88;4.33;;;;;;;13.86;74.83;100188.68;1815137;78;20972;-69
2021/09/01 16:59:08;;;;;;;7.72;5.10;;;;;;;13.77;76.85;100193.11;1810036;78;20989;-69
2021/09/01 17:01:36;;;;;;;7.65;4.60;;;;;;;13.69;76.08;100188.73;1811887;78;20978;-68
2021/09/01 17:04:06;;;;;;;6.87;4.30;;;;;;;13.60;75.99;100189.59;1820216;78;20926;-68
2021/09/01 17:06:37;;;;;;;5.85;3.92;;;;;;;13.53;75.86;100188.23;1799512;78;21016;-68
2021/09/01 17:09:07;;;;;;;8.75;4.62;;;;;;;13.45;76.70;100200.91;1804850;78;20957;-68
2021/09/01 17:11:34;;;;;;;6.53;4.30;;;;;;;13.33;76.64;100194.52;1814230;78;21061;-68
2021/09/01 17:14:05;;;;;;;6.17;4.55;;;;;;;13.25;76.44;100195.77;1814534;78;21579;-68
2021/09/01 17:16:32;;;;;;;6.62;4.70;;;;;;;13.13;76.62;100198.09;1786031;78;21057;-69
2021/09/01 17:18:59;;;;;;;;;;;;;;;13.05;77.30;100192.41;1820730;78;21036;-69
2021/09/01 17:21:27;;;;;;;6.92;4.30;;;;;;;12.97;76.75;100198.49;1808352;78;20303;-68
2021/09/01 17:23:55;;;;;;;8.60;4.58;;;;;;;12.90;76.93;100195.77;1817581;78;21886;-68
2021/09/01 17:26:23;;;;;;;8.70;4.65;;;;;;;12.82;76.76;100209.25;1819232;78;20937;-68
2021/09/01 17:29:03;;;;;;;6.33;4.15;;;;;;;12.78;76.62;100204.25;1818284;78;20922;-67
2021/09/01 17:31:34;;;;;;;6.25;4.40;;;;;;;12.72;77.23;100214.09;1807553;78;20996;-68
2021/09/01 17:34:03;;;;;;;7.67;5.15;;;;;;;12.66;76.82;100205.23;1792027;78;20961;-67
2021/09/01 17:36:32;;;;;;;8.63;4.95;;;;;;;12.61;76.69;100212.45;1792593;78;21336;-67
2021/09/01 17:39:02;;;;;;;7.05;4.45;;;;;;;12.55;76.64;100198.34;1816826;78;20949;-67
2021/09/01 17:41:31;;;;;;;7.90;4.55;;;;;;;12.49;76.81;100209.97;1815815;77;20887;-68
2021/09/01 17:44:00;;;;;;;5.83;4.37;;;;;;;12.45;76.94;100207.55;1816314;78;21550;-67
2021/09/01 17:46:27;;;;;;;7.17;4.83;;;;;;;12.41;77.30;100216.48;1821665;78;20981;-67
2021/09/01 17:48:54;;;;;;;6.25;4.30;;;;;;;12.37;77.54;100214.92;1821320;78;21895;-68
2021/09/01 17:51:23;;;;;;;10.50;4.97;;;;;;;12.34;77.26;100209.83;1798842;78;20912;-67
2021/09/01 17:53:50;;;;;;;7.95;5.10;;;;;;;12.30;77.29;100214.37;1820064;77;20969;-68
2021/09/01 17:56:17;;;;;;;7.12;5.22;;;;;;;12.25;77.63;100214.57;1823200;78;20912;-67
2021/09/01 17:58:43;;;;;;;9.07;4.60;;;;;;;12.21;77.52;100216.95;1816568;78;20970;-67
2021/09/01 18:01:11;;;;;;;7.95;5.15;;;;;;;12.18;77.37;100222.77;1794529;79;22582;-68
2021/09/01 18:03:38;;;;;;;6.30;4.72;;;;;;;12.14;77.51;100224.69;1793625;79;20985;-69
2021/09/01 18:06:05;;;;;;;9.43;5.50;;;;;;;12.12;77.92;100230.91;1794451;79;26608;-69
2021/09/01 18:08:32;;;;;;;11.95;6.37;;;;;;;12.08;77.88;100233.67;1817103;77;21509;-68
2021/09/01 18:10:58;;;;;;;8.07;5.40;;;;;;;12.05;77.74;100233.81;1783055;78;20927;-68
2021/09/01 18:13:26;;;;;;;8.37;5.10;;;;;;;12.02;77.91;100235.72;1773483;78;21998;-67
2021/09/01 18:15:54;;;;;;;7.58;5.40;;;;;;;11.99;77.83;100236.70;1817590;77;21500;-68
2021/09/01 18:18:21;;;;;;;8.65;5.12;;;;;;;11.96;77.75;100235.97;1820310;77;20989;-69
2021/09/01 18:20:49;;;;;;;8.23;5.50;;;;;;;11.93;77.88;100233.50;1810771;77;20886;-69
2021/09/01 18:23:16;;;;;;;7.30;5.47;;;;;;;11.90;78.00;100236.25;1804366;77;21561;-69
2021/09/01 18:25:43;;;;;;;7.50;5.75;;;;;;;11.88;77.88;100239.42;1805025;78;21953;-69
2021/09/01 18:28:10;;;;;;;12.05;6.62;;;;;;;11.83;78.15;100236.50;1806502;77;20986;-69
2021/09/01 18:30:37;;;;;;;7.87;6.07;;;;;;;11.80;77.94;100243.18;1809575;77;21573;-68
2021/09/01 18:33:04;;;;;;;8.85;5.60;;;;;;;11.77;78.21;100244.63;1801006;77;20981;-68
2021/09/01 18:35:32;;;;;;;9.60;6.12;;;;;;;11.74;78.28;100249.15;1800437;78;20980;-67
2021/09/01 18:37:58;;;;;;;9.90;6.00;;;;;;;11.70;78.32;100253.64;1803992;77;21895;-69
2021/09/01 18:40:25;;;;;;;13.08;7.17;;;;;;;11.68;78.38;100260.73;1802567;78;20993;-68
2021/09/01 18:43:02;;;;;;;9.70;7.03;;;;;;;11.67;78.54;100259.02;1800027;78;20966;-69
2021/09/01 18:45:35;;;;;;;9.70;6.53;;;;;;;11.63;78.35;100258.30;1816317;78;20953;-68
2021/09/01 18:48:02;;;;;;;9.95;7.42;;;;;;;11.60;78.39;100260.20;1805357;78;20903;-68
2021/09/01 18:50:30;;;;;;;10.70;6.70;;;;;;;11.55;78.36;100251.70;1821326;78;21073;-68
2021/09/01 18:52:57;;;;;;;12.80;6.58;;;;;;;11.51;78.47;100260.58;1811771;77;20938;-67
2021/09/01 18:55:25;;;;;;;10.90;6.15;;;;;;;11.47;79.03;100253.80;1799086;79;20971;-68